Vernal, Mississippi
Current Conditions -  °F | °C
As of 8:56 AM on Thursday 30 Oct 2014 (Local Time) from KMOB Reporting Station
Few Clouds Few Clouds  
Wind Chill: 59°   Ceiling: Unl
Heat Index: 59°   Visibility: 10mi
Dew Point: 48°   Wind: 9mph
Humidity: 67%   Direction: 20°NNE
Pressure: 30.11"   Gusts: NA
Location:  30.8443°N, 88.5703°W
Report Text: KMOB 301356Z 02008KT 10SM FEW200 15/09 A3011 RMK AO2 SLP196 T01500089
Loading
Personal Weather Stations






























Interactive Weather Map
Tropical Storm Tracking
New forecast layout! Learn more

10-Day Weather Forecast

Advertisements
Track Severe Weather on mobile